Time;durP1;ratioP1;P1;durP2;ratioP2;P2;SDS_P1;SDS_P2;PMS_P1;PMS_P2;Temp;Humidity;BMP_temperature;BMP_pressure;BME280_temperature;BME280_humidity;BME280_pressure;Samples;Min_cycle;Max_cycle;Signal;HPM_P1;HPM_P2
2022/08/20 00:01:04;;;;;;;6.00;3.00;;;22.60;97.40;;;;;;4974214;28;20074;-53
2022/08/20 00:03:33;;;;;;;4.15;2.78;;;22.60;97.60;;;;;;4973764;28;20070;-49
2022/08/20 00:06:09;;;;;;;3.42;3.08;;;22.60;97.90;;;;;;4974177;28;20023;-52
2022/08/20 00:08:35;;;;;;;5.10;2.95;;;22.60;98.10;;;;;;4972912;28;20030;-52
2022/08/20 00:11:03;;;;;;;4.00;2.83;;;22.60;98.30;;;;;;4973241;28;20126;-51
2022/08/20 00:13:35;;;;;;;5.38;2.72;;;22.60;98.70;;;;;;4973584;28;20039;-50
2022/08/20 00:16:01;;;;;;;5.75;2.70;;;22.70;98.70;;;;;;4974097;28;20023;-50
2022/08/20 00:18:27;;;;;;;4.20;2.65;;;22.70;99.00;;;;;;4973809;28;20046;-53
2022/08/20 00:20:54;;;;;;;6.45;2.72;;;22.70;99.10;;;;;;4973889;28;20031;-48
2022/08/20 00:23:20;;;;;;;2.67;2.40;;;22.80;99.20;;;;;;4972192;28;20122;-47
2022/08/20 00:25:46;;;;;;;5.90;2.70;;;22.80;99.20;;;;;;4973857;28;20033;-48
2022/08/20 00:28:13;;;;;;;3.35;2.95;;;22.80;99.40;;;;;;4973803;28;20023;-52
2022/08/20 00:30:41;;;;;;;2.83;2.63;;;22.80;99.40;;;;;;4973785;28;20023;-49
2022/08/20 00:33:10;;;;;;;5.97;3.00;;;22.80;99.50;;;;;;4973242;28;20027;-50
2022/08/20 00:35:39;;;;;;;4.78;2.70;;;22.80;99.60;;;;;;4972728;28;20435;-50
2022/08/20 00:38:05;;;;;;;2.70;2.50;;;22.90;99.70;;;;;;4973459;28;20043;-51
2022/08/20 00:40:40;;;;;;;5.68;2.40;;;22.90;99.70;;;;;;4973584;28;20023;-48
2022/08/20 00:43:22;;;;;;;3.10;2.58;;;22.90;99.60;;;;;;4973042;28;20109;-49
2022/08/20 00:45:49;;;;;;;4.70;2.80;;;22.90;99.90;;;;;;4973569;28;20023;-48
2022/08/20 00:48:15;;;;;;;2.17;2.08;;;22.90;99.90;;;;;;4972120;28;20035;-48
2022/08/20 00:50:41;;;;;;;3.20;2.38;;;22.80;99.90;;;;;;4973530;28;20034;-49
2022/08/20 00:53:07;;;;;;;3.22;2.53;;;22.80;99.90;;;;;;4972724;28;20508;-48
2022/08/20 00:55:34;;;;;;;6.93;2.33;;;22.80;99.90;;;;;;4973314;28;20030;-50
2022/08/20 00:58:03;;;;;;;2.65;2.20;;;22.70;99.90;;;;;;4973276;28;20030;-48
2022/08/20 01:00:33;;;;;;;6.47;2.80;;;22.70;99.90;;;;;;4973090;28;20496;-51
2022/08/20 01:02:59;;;;;;;3.55;2.67;;;22.80;99.90;;;;;;4972604;28;20546;-47
2022/08/20 01:05:26;;;;;;;8.02;2.80;;;22.80;99.90;;;;;;4973220;28;20448;-50
2022/08/20 01:07:53;;;;;;;3.28;2.20;;;22.70;99.90;;;;;;4972962;28;20034;-51
2022/08/20 01:10:23;;;;;;;5.05;2.53;;;22.70;99.90;;;;;;4971477;28;20085;-51
2022/08/20 01:12:52;;;;;;;5.47;2.30;;;22.70;99.90;;;;;;4972940;28;20429;-51
2022/08/20 01:15:20;;;;;;;5.35;2.30;;;22.70;99.90;;;;;;4973069;28;20061;-49
2022/08/20 01:17:49;;;;;;;2.28;2.17;;;22.70;99.90;;;;;;4973092;28;20490;-50
2022/08/20 01:20:30;;;;;;;2.90;2.42;;;22.60;99.90;;;;;;4973002;28;20039;-48
2022/08/20 01:23:31;;;;;;;3.30;2.72;;;22.60;99.90;;;;;;4971150;28;20085;-48
2022/08/20 01:26:13;;;;;;;5.03;2.50;;;22.70;99.90;;;;;;4972990;28;20413;-49
2022/08/20 01:28:42;;;;;;;2.33;2.10;;;22.70;99.90;;;;;;4972878;28;20038;-50
2022/08/20 01:31:14;;;;;;;4.45;2.55;;;22.60;99.90;;;;;;4972740;28;20618;-49
2022/08/20 01:33:40;;;;;;;2.45;2.25;;;22.60;99.90;;;;;;4972421;28;20030;-50
2022/08/20 01:36:07;;;;;;;4.05;2.40;;;22.60;99.90;;;;;;4972799;28;20034;-49
2022/08/20 01:38:34;;;;;;;5.95;1.98;;;22.60;99.90;;;;;;4972681;28;20431;-52
2022/08/20 01:41:31;;;;;;;3.67;2.22;;;22.60;99.90;;;;;;4972614;28;20098;-47
2022/08/20 01:43:58;;;;;;;3.17;2.50;;;22.60;99.90;;;;;;4972468;28;20022;-52
2022/08/20 01:46:28;;;;;;;3.25;2.42;;;22.50;99.90;;;;;;4972734;28;20019;-49
2022/08/20 01:48:55;;;;;;;5.78;2.22;;;22.50;99.90;;;;;;4972718;28;20507;-52
2022/08/20 01:51:25;;;;;;;3.47;2.72;;;22.50;99.90;;;;;;4972606;28;20122;-51
2022/08/20 01:53:53;;;;;;;2.78;2.42;;;22.50;99.90;;;;;;4973764;28;20037;-47
2022/08/20 01:56:23;;;;;;;3.60;2.38;;;22.30;99.90;;;;;;4976619;28;20035;-50
2022/08/20 01:58:52;;;;;;;2.67;2.47;;;22.20;99.90;;;;;;4976582;28;20030;-50
2022/08/20 02:01:33;;;;;;;4.53;2.30;;;22.10;99.90;;;;;;4976815;28;20046;-49
2022/08/20 02:04:01;;;;;;;4.70;2.30;;;22.10;99.90;;;;;;4976376;28;20023;-47
2022/08/20 02:06:29;;;;;;;3.00;2.38;;;22.10;99.90;;;;;;4976060;28;20422;-48
2022/08/20 02:09:01;;;;;;;3.03;2.28;;;22.20;99.90;;;;;;4976377;28;20030;-47
2022/08/20 02:11:28;;;;;;;2.60;2.42;;;22.10;99.90;;;;;;4975808;28;20019;-47
2022/08/20 02:13:55;;;;;;;3.28;2.30;;;22.10;99.90;;;;;;4975989;28;20418;-50
2022/08/20 02:16:28;;;;;;;6.22;2.80;;;22.10;99.90;;;;;;4976184;28;20027;-47
2022/08/20 02:18:57;;;;;;;6.43;2.53;;;22.00;99.90;;;;;;4976393;28;20330;-47
2022/08/20 02:21:26;;;;;;;3.10;2.83;;;22.10;99.90;;;;;;4976087;28;20027;-49
2022/08/20 02:23:51;;;;;;;3.50;2.47;;;22.20;99.90;;;;;;4975711;28;20102;-45
2022/08/20 02:26:18;;;;;;;3.90;2.35;;;22.10;99.90;;;;;;4976037;28;20528;-49
2022/08/20 02:28:48;;;;;;;3.83;2.75;;;22.10;99.90;;;;;;4976284;28;20604;-48
2022/08/20 02:31:15;;;;;;;3.72;2.90;;;22.00;99.90;;;;;;4975821;28;20081;-46
2022/08/20 02:33:41;;;;;;;2.58;2.30;;;22.00;99.90;;;;;;4975453;28;20030;-48
2022/08/20 02:36:06;;;;;;;2.97;2.60;;;22.00;99.90;;;;;;4975769;28;20031;-47
2022/08/20 02:38:33;;;;;;;4.78;2.35;;;22.00;99.90;;;;;;4975762;28;20039;-48
2022/08/20 02:40:59;;;;;;;2.83;2.20;;;22.00;99.90;;;;;;4975775;28;20030;-49
2022/08/20 02:43:25;;;;;;;4.97;2.25;;;22.00;99.90;;;;;;4975355;28;20023;-46
2022/08/20 02:45:51;;;;;;;5.15;2.38;;;22.00;99.90;;;;;;4975521;28;20086;-47
2022/08/20 02:48:19;;;;;;;3.72;2.30;;;22.00;99.90;;;;;;4975680;28;20408;-47
2022/08/20 02:50:47;;;;;;;2.53;2.30;;;22.00;99.90;;;;;;4975639;28;20018;-47
2022/08/20 02:53:14;;;;;;;3.63;2.10;;;22.00;99.90;;;;;;4975021;28;20022;-47
2022/08/20 02:55:40;;;;;;;2.30;2.10;;;21.90;99.90;;;;;;4975568;28;20480;-52
2022/08/20 02:58:05;;;;;;;3.22;2.45;;;21.90;99.90;;;;;;4975531;28;20030;-47
2022/08/20 03:00:31;;;;;;;3.15;2.20;;;21.90;99.90;;;;;;4975345;28;20037;-51
2022/08/20 03:02:58;;;;;;;12.27;2.20;;;21.90;99.90;;;;;;4974941;28;20407;-46
2022/08/20 03:05:23;;;;;;;2.05;1.95;;;21.90;99.90;;;;;;4975122;28;20413;-48
2022/08/20 03:07:52;;;;;;;2.15;1.73;;;21.90;99.90;;;;;;4975300;28;20030;-49
2022/08/20 03:10:30;;;;;;;2.90;2.38;;;21.90;99.90;;;;;;4974949;28;20492;-51
2022/08/20 03:12:58;;;;;;;1.98;1.88;;;21.90;99.90;;;;;;4974831;28;20026;-51
2022/08/20 03:15:24;;;;;;;1.92;1.83;;;21.90;99.90;;;;;;4975185;28;20023;-47
2022/08/20 03:17:49;;;;;;;2.00;1.90;;;21.90;99.90;;;;;;4973831;28;20027;-48
2022/08/20 03:20:15;;;;;;;2.10;1.90;;;21.90;99.90;;;;;;4974929;28;20059;-47
2022/08/20 03:22:41;;;;;;;2.38;2.20;;;21.90;99.90;;;;;;4974587;28;20097;-47
2022/08/20 03:25:07;;;;;;;2.10;2.00;;;21.90;99.90;;;;;;4974963;28;20034;-50
2022/08/20 03:27:33;;;;;;;2.35;2.10;;;21.90;99.90;;;;;;4975062;28;20046;-49
2022/08/20 03:29:58;;;;;;;3.00;1.83;;;22.00;99.90;;;;;;4975471;28;20034;-48
2022/08/20 03:32:24;;;;;;;2.10;2.00;;;21.90;99.90;;;;;;4974567;28;20077;-50
2022/08/20 03:34:49;;;;;;;2.05;1.95;;;22.00;99.90;;;;;;4974917;28;20031;-46
2022/08/20 03:37:15;;;;;;;4.45;1.73;;;22.00;99.90;;;;;;4974730;28;20033;-49
2022/08/20 03:39:41;;;;;;;1.80;1.70;;;22.00;99.90;;;;;;4974869;28;20034;-53
2022/08/20 03:42:07;;;;;;;4.53;1.60;;;22.00;99.90;;;;;;4974277;28;20027;-49
2022/08/20 03:44:32;;;;;;;3.10;1.83;;;22.00;99.90;;;;;;4974698;28;20050;-51
2022/08/20 03:46:58;;;;;;;1.95;1.52;;;22.00;99.90;;;;;;4974618;28;20046;-50
2022/08/20 03:49:24;;;;;;;1.75;1.65;;;22.00;99.90;;;;;;4974496;28;20492;-49
2022/08/20 03:51:50;;;;;;;1.88;1.60;;;22.00;99.90;;;;;;4974030;28;20069;-49
2022/08/20 03:54:16;;;;;;;2.50;1.88;;;22.00;99.90;;;;;;4972966;28;20031;-47
2022/08/20 03:56:41;;;;;;;2.53;1.73;;;22.00;99.90;;;;;;4974449;28;20038;-50
2022/08/20 03:59:07;;;;;;;2.45;1.80;;;22.00;99.90;;;;;;4974487;28;20476;-48
2022/08/20 04:01:33;;;;;;;1.77;1.67;;;22.00;99.90;;;;;;4974135;28;20038;-50
2022/08/20 04:03:58;;;;;;;2.17;2.08;;;22.20;99.90;;;;;;4974465;28;20038;-47
2022/08/20 04:06:25;;;;;;;2.65;1.95;;;22.10;99.90;;;;;;4974116;28;20623;-50
2022/08/20 04:08:52;;;;;;;3.30;1.55;;;22.10;99.90;;;;;;4974282;28;20031;-47
2022/08/20 04:11:18;;;;;;;4.40;1.90;;;22.00;99.90;;;;;;4973815;28;20027;-51
2022/08/20 04:13:43;;;;;;;3.40;2.10;;;22.00;99.90;;;;;;4973780;28;20484;-49
2022/08/20 04:16:09;;;;;;;3.53;2.28;;;21.90;99.90;;;;;;4973575;28;20105;-50
2022/08/20 04:18:35;;;;;;;2.28;2.08;;;21.80;99.90;;;;;;4973925;28;20023;-47
2022/08/20 04:21:02;;;;;;;2.88;1.85;;;21.70;99.90;;;;;;4973892;28;20035;-51
2022/08/20 04:23:29;;;;;;;2.08;1.90;;;21.80;99.90;;;;;;4973550;28;20023;-48
2022/08/20 04:25:55;;;;;;;2.30;2.10;;;21.80;99.90;;;;;;4974013;28;20437;-49
2022/08/20 04:28:27;;;;;;;2.47;1.90;;;21.80;99.90;;;;;;4973813;28;20050;-48
2022/08/20 04:30:55;;;;;;;2.22;2.03;;;21.80;99.90;;;;;;4973812;28;20022;-49
2022/08/20 04:33:22;;;;;;;2.92;2.40;;;21.80;99.90;;;;;;4973126;28;20026;-48
2022/08/20 04:35:47;;;;;;;2.20;1.90;;;21.80;99.90;;;;;;4973847;28;20049;-52
2022/08/20 04:38:19;;;;;;;2.42;1.90;;;21.80;99.90;;;;;;4973655;28;20488;-49
2022/08/20 04:40:56;;;;;;;2.00;1.77;;;21.80;99.90;;;;;;4973574;28;20130;-47
2022/08/20 04:43:27;;;;;;;2.22;1.92;;;21.80;99.90;;;;;;4973293;28;20392;-49
2022/08/20 04:45:56;;;;;;;5.28;1.92;;;21.70;99.90;;;;;;4973466;28;20023;-50
2022/08/20 04:48:23;;;;;;;3.60;1.70;;;21.60;99.90;;;;;;4973753;28;20686;-51
2022/08/20 04:50:51;;;;;;;2.20;2.00;;;21.60;99.90;;;;;;4973655;28;20081;-48
2022/08/20 04:53:18;;;;;;;1.55;1.45;;;21.60;99.90;;;;;;4972861;28;20034;-46
2022/08/20 04:55:45;;;;;;;2.10;1.90;;;21.70;99.90;;;;;;4974654;28;20066;-48
2022/08/20 04:58:17;;;;;;;2.05;1.73;;;21.80;99.90;;;;;;4973899;28;20027;-48
2022/08/20 05:00:47;;;;;;;1.55;1.45;;;21.80;99.90;;;;;;4973505;28;20054;-50
2022/08/20 05:03:14;;;;;;;2.50;1.85;;;21.70;99.90;;;;;;4972845;28;20488;-48
2022/08/20 05:05:40;;;;;;;1.77;1.65;;;21.70;99.90;;;;;;4973326;28;20396;-45
2022/08/20 05:08:06;;;;;;;1.77;1.67;;;21.80;99.90;;;;;;4973376;28;20073;-50
2022/08/20 05:10:31;;;;;;;2.45;1.73;;;21.80;99.90;;;;;;4973482;28;20055;-48
2022/08/20 05:12:57;;;;;;;4.60;1.58;;;21.80;99.90;;;;;;4973371;28;20030;-47
2022/08/20 05:15:24;;;;;;;2.25;1.67;;;21.80;99.90;;;;;;4973291;28;20109;-47
2022/08/20 05:17:55;;;;;;;2.78;1.75;;;21.80;99.90;;;;;;4988986;23;20053;-50
2022/08/20 05:20:21;;;;;;;1.60;1.50;;;21.80;99.90;;;;;;4972912;28;20497;-49
2022/08/20 05:22:46;;;;;;;1.92;1.65;;;21.80;99.90;;;;;;4972563;28;20035;-49
2022/08/20 05:25:12;;;;;;;4.43;2.00;;;21.80;99.90;;;;;;4972877;28;20026;-48
2022/08/20 05:27:38;;;;;;;1.55;1.45;;;21.70;99.90;;;;;;4962544;28;20024;-45
2022/08/20 05:30:10;;;;;;;5.40;1.60;;;21.80;99.90;;;;;;4953680;28;20027;-50
2022/08/20 05:32:36;;;;;;;3.15;1.80;;;21.80;99.90;;;;;;4953311;28;20055;-44
2022/08/20 05:35:08;;;;;;;3.17;1.92;;;21.80;99.90;;;;;;4953726;28;20082;-49
2022/08/20 05:37:38;;;;;;;4.82;2.00;;;21.80;99.90;;;;;;4953417;28;20028;-48
2022/08/20 05:40:13;;;;;;;6.88;1.83;;;21.80;99.90;;;;;;4953514;28;20031;-48
2022/08/20 05:42:39;;;;;;;4.28;1.88;;;21.80;99.90;;;;;;4953159;28;20521;-47
2022/08/20 05:45:05;;;;;;;4.07;2.17;;;21.80;99.90;;;;;;4953738;28;20114;-44
2022/08/20 05:47:31;;;;;;;2.90;1.88;;;21.80;99.90;;;;;;4953210;28;20019;-48
2022/08/20 05:49:57;;;;;;;2.00;1.80;;;21.80;99.90;;;;;;4953484;28;20034;-47
2022/08/20 05:52:22;;;;;;;1.77;1.67;;;21.80;99.90;;;;;;4951590;28;20078;-47
2022/08/20 05:54:48;;;;;;;3.08;1.63;;;21.90;99.90;;;;;;4953329;28;20046;-48
2022/08/20 05:57:17;;;;;;;1.80;1.70;;;21.90;99.90;;;;;;4952495;28;20051;-51
2022/08/20 05:59:43;;;;;;;3.00;1.75;;;21.80;99.90;;;;;;4952207;29;20055;-47
2022/08/20 06:04:23;;;;;;;2.22;1.52;;;21.90;99.90;;;;;;4952846;28;20062;-48
2022/08/20 06:04:54;;;;;;;;;;;21.90;99.90;;;;;;4954295;28;20031;-48
2022/08/20 06:07:19;;;;;;;7.28;1.77;;;21.90;99.90;;;;;;4953334;28;19910;-50
2022/08/20 06:09:45;;;;;;;2.85;2.60;;;22.00;99.90;;;;;;4953534;28;20031;-44
2022/08/20 06:12:11;;;;;;;3.90;3.60;;;22.00;99.90;;;;;;4952593;28;20035;-49
2022/08/20 06:14:36;;;;;;;5.28;4.78;;;21.90;99.90;;;;;;4953117;28;20101;-53
2022/08/20 06:17:03;;;;;;;5.80;4.53;;;21.70;99.90;;;;;;4951577;28;20043;-52
2022/08/20 06:19:28;;;;;;;4.57;4.18;;;21.50;99.90;;;;;;4953022;29;20162;-52
2022/08/20 06:21:55;;;;;;;4.18;3.65;;;21.30;99.90;;;;;;4952830;28;20110;-50
2022/08/20 06:24:20;;;;;;;4.60;4.20;;;21.10;99.90;;;;;;4953060;28;20038;-46
2022/08/20 06:26:46;;;;;;;7.70;6.22;;;21.00;99.90;;;;;;4953069;28;20389;-49
2022/08/20 06:29:11;;;;;;;10.13;8.30;;;20.90;99.90;;;;;;4952871;28;20422;-48
2022/08/20 06:31:38;;;;;;;10.65;8.80;;;20.70;99.90;;;;;;4951913;29;20519;-53
2022/08/20 06:34:04;;;;;;;12.32;10.13;;;20.60;99.90;;;;;;4952851;28;20051;-50
2022/08/20 06:36:29;;;;;;;12.32;10.40;;;20.60;99.90;;;;;;4953138;28;20066;-48
2022/08/20 06:38:57;;;;;;;11.60;10.40;;;20.60;99.90;;;;;;4953112;28;20031;-48
2022/08/20 06:41:22;;;;;;;10.35;9.35;;;20.60;99.90;;;;;;4956500;28;20436;-49
2022/08/20 06:43:49;;;;;;;11.15;10.02;;;20.60;99.90;;;;;;4956045;28;20027;-49
2022/08/20 06:46:15;;;;;;;11.38;9.80;;;20.60;99.90;;;;;;4956338;28;20023;-51
2022/08/20 06:48:41;;;;;;;11.73;9.98;;;20.60;99.90;;;;;;4956194;28;20404;-52
2022/08/20 06:51:06;;;;;;;28.95;12.02;;;20.60;99.90;;;;;;4956080;28;20485;-48
2022/08/20 06:53:32;;;;;;;12.38;11.05;;;20.70;99.90;;;;;;4955903;28;20051;-51
2022/08/20 06:55:58;;;;;;;13.25;10.70;;;20.70;99.90;;;;;;4956307;28;20078;-46
2022/08/20 06:58:24;;;;;;;12.30;10.90;;;20.70;99.90;;;;;;4956008;28;20027;-46
2022/08/20 07:00:49;;;;;;;11.00;9.93;;;20.70;99.90;;;;;;4956161;28;20035;-49
2022/08/20 07:03:15;;;;;;;12.68;11.43;;;20.60;99.90;;;;;;4955682;28;20058;-51
2022/08/20 07:05:42;;;;;;;12.57;11.38;;;20.70;99.90;;;;;;4956157;28;20042;-50
2022/08/20 07:08:10;;;;;;;12.68;11.43;;;20.70;99.90;;;;;;4955819;28;20150;-49
2022/08/20 07:10:36;;;;;;;18.25;12.40;;;20.70;99.90;;;;;;4955373;28;20493;-50
2022/08/20 07:13:01;;;;;;;13.68;12.27;;;20.70;99.90;;;;;;4955556;28;20034;-47
2022/08/20 07:15:27;;;;;;;15.27;13.68;;;20.80;99.90;;;;;;4955913;28;20031;-49
2022/08/20 07:17:58;;;;;;;14.38;12.95;;;20.90;99.90;;;;;;4955657;28;20583;-48
2022/08/20 07:20:25;;;;;;;13.60;12.07;;;21.00;99.90;;;;;;4955798;28;20031;-48
2022/08/20 07:22:51;;;;;;;12.80;11.50;;;21.30;99.90;;;;;;4955185;28;20042;-47
2022/08/20 07:25:19;;;;;;;13.20;11.77;;;21.50;99.90;;;;;;4955860;28;20023;-49
2022/08/20 07:27:47;;;;;;;11.05;9.95;;;21.70;99.90;;;;;;4955726;28;20026;-52
2022/08/20 07:33:04;;;;;;;10.82;9.52;;;21.90;99.90;;;;;;4955227;29;20038;-45
2022/08/20 07:35:30;;;;;;;9.02;8.13;;;22.00;99.90;;;;;;4955661;28;20027;-48
2022/08/20 07:37:55;;;;;;;11.50;8.05;;;22.10;99.90;;;;;;4954757;28;20039;-52
2022/08/20 07:40:28;;;;;;;7.32;6.63;;;22.30;99.90;;;;;;4953786;28;20032;-49
2022/08/20 07:42:55;;;;;;;7.70;6.30;;;22.60;99.90;;;;;;4953281;28;20493;-50
2022/08/20 07:45:22;;;;;;;6.70;6.10;;;22.80;99.90;;;;;;4955467;28;20024;-53
2022/08/20 07:47:48;;;;;;;4.82;4.47;;;23.20;99.90;;;;;;4955962;28;20051;-47
2022/08/20 07:50:19;;;;;;;5.82;4.10;;;23.90;99.90;;;;;;4957369;28;20094;-51
2022/08/20 07:52:45;;;;;;;3.45;3.22;;;24.60;99.90;;;;;;4952597;29;20031;-48
2022/08/20 07:55:14;;;;;;;3.65;3.35;;;24.90;99.90;;;;;;4954534;28;20528;-52
2022/08/20 07:57:40;;;;;;;2.50;2.00;;;25.30;99.90;;;;;;4954712;28;20130;-49
2022/08/20 08:00:08;;;;;;;2.70;2.20;;;25.60;99.90;;;;;;4955781;28;20031;-51
2022/08/20 08:02:35;;;;;;;2.15;1.60;;;25.60;99.90;;;;;;4950713;29;20034;-49
2022/08/20 08:05:00;;;;;;;1.77;1.67;;;25.80;99.90;;;;;;4965038;28;20027;-46
2022/08/20 08:07:26;;;;;;;1.60;1.50;;;26.60;99.90;;;;;;4968941;28;20457;-53
2022/08/20 08:09:53;;;;;;;2.83;1.85;;;27.50;99.90;;;;;;4954777;28;20039;-51
2022/08/20 08:12:20;;;;;;;2.17;1.40;;;28.40;99.90;;;;;;4956153;28;20166;-52
2022/08/20 08:14:46;;;;;;;4.35;2.65;;;29.40;99.90;;;;;;4955091;28;20046;-51
2022/08/20 08:17:15;;;;;;;2.00;1.40;;;29.70;99.40;;;;;;4954212;28;20129;-55
2022/08/20 08:19:45;;;;;;;2.47;1.40;;;29.40;99.00;;;;;;4954308;28;20036;-49
2022/08/20 08:22:12;;;;;;;1.10;1.00;;;28.70;99.90;;;;;;4954311;28;20174;-44
2022/08/20 08:24:39;;;;;;;3.65;1.48;;;28.60;99.90;;;;;;4954493;28;20024;-46
2022/08/20 08:27:07;;;;;;;1.27;1.17;;;28.60;99.90;;;;;;4954555;28;20103;-53
2022/08/20 08:29:34;;;;;;;2.15;1.20;;;28.70;99.90;;;;;;4954585;28;20023;-47
2022/08/20 08:32:01;;;;;;;1.90;1.40;;;28.50;99.90;;;;;;4953844;28;20102;-50
2022/08/20 08:34:28;;;;;;;1.77;1.23;;;28.10;99.90;;;;;;4954865;28;20027;-50
2022/08/20 08:36:54;;;;;;;3.05;1.30;;;27.60;99.90;;;;;;4954235;28;20027;-48
2022/08/20 08:39:21;;;;;;;1.50;1.40;;;27.00;99.90;;;;;;4954461;28;20031;-49
2022/08/20 08:41:48;;;;;;;1.63;1.52;;;26.50;99.90;;;;;;4954013;28;20512;-50
2022/08/20 08:44:21;;;;;;;3.42;1.50;;;26.20;99.90;;;;;;4954421;28;20082;-49
2022/08/20 08:46:49;;;;;;;1.67;1.58;;;26.00;99.90;;;;;;4954185;28;20048;-43
2022/08/20 08:49:21;;;;;;;1.80;1.30;;;26.00;99.90;;;;;;4954282;28;20031;-45
2022/08/20 08:52:06;;;;;;;1.92;1.70;;;26.40;99.90;;;;;;4953839;28;20489;-45
2022/08/20 08:54:33;;;;;;;1.40;1.40;;;26.70;99.90;;;;;;4953923;28;20111;-44
2022/08/20 08:57:00;;;;;;;1.90;1.80;;;26.90;99.90;;;;;;4952823;28;20027;-49
2022/08/20 08:59:27;;;;;;;2.05;1.95;;;26.60;99.90;;;;;;4954092;28;20429;-48
2022/08/20 09:01:56;;;;;;;2.10;2.00;;;26.60;99.90;;;;;;4953849;28;20141;-49
2022/08/20 09:04:30;;;;;;;2.00;1.90;;;26.60;99.90;;;;;;4953530;28;20397;-47
2022/08/20 09:06:57;;;;;;;4.80;2.33;;;26.40;99.90;;;;;;4951363;28;20382;-48
2022/08/20 09:09:30;;;;;;;2.47;2.25;;;26.30;99.90;;;;;;4953113;28;20038;-51
2022/08/20 09:12:06;;;;;;;2.53;2.33;;;26.00;99.90;;;;;;4949686;28;20126;-41
2022/08/20 09:14:32;;;;;;;6.55;2.25;;;26.00;99.90;;;;;;4953727;28;20118;-50
2022/08/20 09:16:57;;;;;;;2.00;1.90;;;25.80;99.90;;;;;;4934415;29;20051;-48
2022/08/20 09:19:23;;;;;;;2.53;2.25;;;25.60;99.90;;;;;;4934607;29;20447;-49
2022/08/20 09:21:48;;;;;;;2.55;2.38;;;25.60;99.90;;;;;;4947365;29;20031;-48
2022/08/20 09:24:14;;;;;;;4.00;1.90;;;25.50;99.90;;;;;;4953259;28;20106;-44
2022/08/20 09:26:40;;;;;;;2.00;1.90;;;25.30;99.90;;;;;;4953727;28;20031;-52
2022/08/20 09:29:05;;;;;;;2.45;2.17;;;25.40;99.90;;;;;;4953376;28;20465;-46
2022/08/20 09:31:31;;;;;;;2.33;2.00;;;25.60;99.90;;;;;;4953310;28;20031;-47
2022/08/20 09:33:56;;;;;;;1.85;1.75;;;25.90;99.90;;;;;;4951767;28;20043;-46
2022/08/20 09:36:22;;;;;;;3.35;2.08;;;26.00;99.90;;;;;;4934514;29;20494;-45
2022/08/20 09:38:47;;;;;;;1.70;1.60;;;26.10;99.90;;;;;;4934638;29;20051;-48
2022/08/20 09:41:13;;;;;;;2.05;1.95;;;26.00;99.90;;;;;;4934212;29;20031;-47
2022/08/20 09:43:38;;;;;;;1.80;1.70;;;26.20;99.90;;;;;;4954593;28;20038;-43
2022/08/20 09:46:04;;;;;;;2.60;1.70;;;26.50;99.90;;;;;;4972685;28;20105;-51
2022/08/20 09:48:30;;;;;;;1.42;1.40;;;26.80;99.90;;;;;;4953106;28;20019;-48
2022/08/20 09:50:56;;;;;;;1.80;1.70;;;27.10;99.90;;;;;;4953362;28;20034;-53
2022/08/20 09:53:21;;;;;;;1.80;1.70;;;27.40;99.60;;;;;;4953165;28;20428;-53
2022/08/20 09:55:52;;;;;;;1.83;1.73;;;27.60;99.90;;;;;;4953411;28;20110;-49
2022/08/20 09:58:23;;;;;;;1.55;1.40;;;27.30;98.90;;;;;;4953349;28;20035;-48
2022/08/20 10:00:49;;;;;;;1.95;1.60;;;27.30;99.50;;;;;;4953463;28;20034;-50
2022/08/20 10:03:15;;;;;;;17.02;14.93;;;27.50;98.50;;;;;;4952904;28;20031;-49
2022/08/20 10:05:41;;;;;;;5.90;5.15;;;27.70;98.70;;;;;;4969854;28;20042;-44
2022/08/20 10:08:08;;;;;;;2.50;2.30;;;28.00;98.70;;;;;;4955546;28;20455;-50
2022/08/20 10:10:34;;;;;;;2.60;1.48;;;28.00;98.00;;;;;;4953080;28;20023;-50
2022/08/20 10:13:01;;;;;;;1.77;1.67;;;27.90;98.30;;;;;;4953097;28;20078;-45
2022/08/20 10:15:28;;;;;;;1.83;1.60;;;27.70;98.90;;;;;;4965172;28;20098;-48
2022/08/20 10:17:53;;;;;;;1.60;1.50;;;27.40;99.40;;;;;;4973095;28;20073;-45
2022/08/20 10:20:19;;;;;;;4.55;1.50;;;27.10;99.20;;;;;;4973964;28;20054;-45
2022/08/20 10:22:45;;;;;;;1.20;1.20;;;26.80;98.80;;;;;;4974410;28;20094;-47
2022/08/20 10:25:10;;;;;;;1.23;1.10;;;26.50;98.90;;;;;;4973912;28;20113;-48
2022/08/20 10:27:36;;;;;;;1.63;1.25;;;26.20;99.40;;;;;;4975717;28;20034;-44
2022/08/20 10:30:03;;;;;;;0.70;0.70;;;26.00;99.70;;;;;;4975518;28;20429;-43
2022/08/20 10:32:28;;;;;;;1.05;0.95;;;26.10;99.50;;;;;;4975356;28;20121;-51
2022/08/20 10:34:54;;;;;;;0.90;0.90;;;26.20;98.80;;;;;;4975460;28;20106;-48
2022/08/20 10:37:22;;;;;;;0.70;0.70;;;26.40;98.30;;;;;;4975820;28;20034;-45
2022/08/20 10:39:48;;;;;;;1.00;0.90;;;26.60;98.10;;;;;;4975151;28;20030;-47
2022/08/20 10:42:13;;;;;;;1.08;0.85;;;26.80;96.30;;;;;;4974945;28;20041;-49
2022/08/20 10:44:39;;;;;;;0.50;0.50;;;26.80;96.10;;;;;;4972105;28;20031;-50
2022/08/20 10:47:15;;;;;;;2.70;0.80;;;26.90;96.30;;;;;;4974590;28;20046;-50
2022/08/20 10:49:41;;;;;;;0.73;0.52;;;26.90;96.70;;;;;;4947063;29;20493;-48
2022/08/20 10:52:06;;;;;;;0.63;0.40;;;27.10;95.70;;;;;;4955164;28;20039;-44
2022/08/20 10:54:32;;;;;;;0.35;0.35;;;27.10;95.30;;;;;;4955724;28;20114;-47
2022/08/20 10:57:03;;;;;;;0.28;0.28;;;27.20;94.70;;;;;;4956305;28;20421;-49
2022/08/20 10:59:29;;;;;;;0.30;0.30;;;27.30;93.80;;;;;;4949425;28;20023;-49
2022/08/20 11:01:55;;;;;;;20.23;17.45;;;27.30;93.10;;;;;;4936157;29;20034;-51
2022/08/20 11:04:20;;;;;;;0.60;0.60;;;27.30;93.10;;;;;;4936670;29;20034;-49
2022/08/20 11:06:46;;;;;;;32.83;23.48;;;27.40;92.40;;;;;;4936587;29;20047;-48
2022/08/20 11:09:11;;;;;;;0.85;0.82;;;27.50;92.00;;;;;;4937021;29;20036;-48
2022/08/20 11:11:37;;;;;;;0.90;0.28;;;27.50;92.00;;;;;;4944306;29;20101;-51
2022/08/20 11:14:02;;;;;;;0.88;0.30;;;27.40;92.60;;;;;;4954527;28;20063;-48
2022/08/20 11:16:29;;;;;;;0.32;0.30;;;27.40;92.00;;;;;;4956108;28;20420;-48
2022/08/20 11:18:54;;;;;;;0.30;0.30;;;27.20;92.90;;;;;;5004187;23;20046;-47
2022/08/20 11:21:20;;;;;;;0.20;0.20;;;27.30;93.30;;;;;;4961588;28;20041;-51
2022/08/20 11:23:45;;;;;;;0.60;0.20;;;27.30;93.00;;;;;;4961517;28;20042;-51
2022/08/20 11:26:19;;;;;;;0.30;0.30;;;27.20;93.50;;;;;;4954692;28;20110;-46
2022/08/20 11:28:45;;;;;;;0.10;0.10;;;27.30;92.80;;;;;;4955770;28;20444;-49
2022/08/20 11:31:10;;;;;;;0.30;0.30;;;27.30;92.30;;;;;;4954415;28;20046;-48
2022/08/20 11:33:36;;;;;;;0.30;0.30;;;27.40;92.40;;;;;;4954097;29;20118;-47
2022/08/20 11:36:02;;;;;;;0.10;0.10;;;27.40;92.50;;;;;;4955485;28;20031;-50
2022/08/20 11:38:27;;;;;;;0.30;0.30;;;27.40;92.00;;;;;;4966352;28;20035;-46
2022/08/20 11:40:52;;;;;;;1.00;0.30;;;27.30;91.70;;;;;;4975096;28;20437;-46
2022/08/20 11:43:18;;;;;;;0.20;0.20;;;27.20;92.80;;;;;;4973628;28;20042;-47
2022/08/20 11:45:47;;;;;;;0.50;0.30;;;27.10;92.30;;;;;;4974248;28;20382;-44
2022/08/20 11:48:12;;;;;;;0.55;0.40;;;27.10;92.20;;;;;;4974961;28;20031;-50
2022/08/20 11:50:38;;;;;;;2.50;0.40;;;27.00;92.30;;;;;;4973875;28;20097;-45
2022/08/20 11:53:03;;;;;;;0.50;0.50;;;27.00;92.40;;;;;;4973752;28;20034;-45
2022/08/20 11:55:29;;;;;;;1.35;0.30;;;27.20;91.50;;;;;;4974634;28;20046;-47
2022/08/20 11:57:54;;;;;;;0.90;0.50;;;27.10;91.90;;;;;;4974475;28;20027;-47
2022/08/20 12:00:23;;;;;;;0.25;0.25;;;27.00;91.70;;;;;;4974497;28;20070;-44
2022/08/20 12:02:50;;;;;;;0.30;0.30;;;27.00;92.00;;;;;;4973898;28;20022;-45
2022/08/20 12:05:16;;;;;;;0.30;0.30;;;27.00;91.70;;;;;;4974304;28;20030;-45
2022/08/20 12:07:42;;;;;;;0.40;0.40;;;26.80;92.60;;;;;;4974167;28;20031;-45
2022/08/20 12:10:08;;;;;;;0.55;0.30;;;26.80;93.40;;;;;;4974242;28;20058;-44
2022/08/20 12:12:36;;;;;;;0.40;0.40;;;26.80;92.40;;;;;;4974044;28;20090;-44
2022/08/20 12:15:02;;;;;;;2.58;0.60;;;26.80;92.40;;;;;;4974058;28;20034;-48
2022/08/20 12:17:29;;;;;;;3.17;0.30;;;26.80;93.80;;;;;;4973898;28;20039;-46
2022/08/20 12:20:04;;;;;;;3.40;3.10;;;26.90;93.90;;;;;;4973941;28;20409;-46
2022/08/20 12:22:30;;;;;;;46.47;38.78;;;26.90;92.60;;;;;;4972384;28;20118;-47
2022/08/20 12:24:56;;;;;;;1.10;1.10;;;26.90;92.80;;;;;;4973803;28;20441;-44
2022/08/20 12:27:27;;;;;;;0.35;0.35;;;26.90;93.20;;;;;;4972602;28;20382;-46
2022/08/20 12:29:54;;;;;;;0.57;0.30;;;27.00;92.70;;;;;;4972479;28;20030;-45
2022/08/20 12:32:22;;;;;;;0.52;0.50;;;27.00;93.70;;;;;;4973382;28;20035;-49
2022/08/20 12:34:48;;;;;;;1.27;0.50;;;27.10;92.00;;;;;;4973546;28;20034;-44
2022/08/20 12:37:16;;;;;;;1.27;0.35;;;27.10;92.50;;;;;;4973319;28;20034;-47
2022/08/20 12:39:46;;;;;;;1.00;0.30;;;27.10;93.00;;;;;;4972175;28;20031;-46
2022/08/20 12:42:13;;;;;;;1.52;0.50;;;27.20;92.20;;;;;;4971812;28;20042;-47
2022/08/20 12:44:39;;;;;;;2.28;0.30;;;27.30;92.10;;;;;;4972129;28;20619;-46
2022/08/20 12:47:09;;;;;;;0.30;0.30;;;27.30;91.80;;;;;;4972249;28;20059;-48
2022/08/20 12:49:35;;;;;;;0.35;0.35;;;27.30;92.90;;;;;;4973207;28;20042;-46